Latest Coastal Weather Observations for Cape Otway

IDT60701

Issued at 2:05 am EST Saturday 2 August 2014 (issued every 10 minutes, with the page automatically refreshed every 10 minutes)

About coastal observations | Map of coastal stations | Coastal observations for TAS | Marine services | Other Formats
Station Details ID: 090015 Name: CAPE OTWAY LIGHTHOUSE Lat: -38.86 Lon: 143.51 Height: 82.0 m
Data from the previous 72 hours. | See also: Recent months at Cape Otway
Date/Time
EST
Temp

°C
Wind Pressure Rain
since 9am
mm
Weather Cloud Vis
km
Sea
Height
m
Swell
Dir
 
Speed
knots
Gust
knots
hPa Trend Height
m
Period
s
Dir
02/02:00am 9.5 SSW 17 23 1024.2 - 0.8 - - - - - - -
02/01:30am 9.3 SSW 24 30 1023.7 - 0.8 - - - - - - -
02/01:21am 9.5 SSW 20 30 1023.6 - 0.8 - - - - - - -
02/01:00am 9.6 SSW 22 26 1023.5 - 0.8 - - - - - - -
02/12:48am 9.6 SSW 18 28 1023.3 - 0.8 - - - - - - -
02/12:47am 9.6 SSW 18 28 1023.3 - 0.8 - - - - - - -
02/12:30am 9.7 SSW 17 26 1023.3 - 0.8 - - - - - - -
02/12:00am 9.7 SSW 19 25 1022.8 - 0.8 - - - - - - -
 
Date/Time
EST
Temp

°C
Wind Pressure Rain
since 9am
mm
Weather Cloud Vis
km
Sea
Height
m
Swell
Dir
 
Speed
knots
Gust
knots
hPa Trend Height
m
Period
s
Dir
01/11:30pm 9.9 SSW 21 26 1022.6 - 0.8 - - - - - - -
01/11:00pm 9.4 SSW 21 31 1022.3 - 0.8 - - - - - - -
01/10:31pm 9.9 SSW 19 29 1021.6 - 0.8 - - - - - - -
01/10:30pm 9.9 SSW 20 29 1021.6 - 0.8 - - - - - - -
01/10:00pm 9.8 SSW 22 31 1021.2 - 0.8 - - - - - - -
01/09:30pm 9.7 SSW 19 28 1020.4 - 0.8 - - - - - - -
01/09:06pm 9.6 SSW 19 29 1019.8 - 0.8 - - - - - - -
01/09:05pm 9.6 SSW 19 29 1019.8 - 0.8 - - - - - - -
01/09:00pm 9.4 SSW 20 29 1019.7 - 0.8 - - - - - - -
01/08:30pm 9.7 SSW 21 31 1019.1 - 0.8 - - - - - - -
01/08:09pm 8.9 SSW 23 33 1018.3 - 0.8 - - - - - - -
01/08:08pm 8.9 SSW 23 33 1018.3 - 0.8 - - - - - - -
01/08:00pm 9.6 SSW 22 30 1018.5 - 0.8 - - - - - - -
01/07:31pm 9.9 SSW 25 35 1017.6 - 0.8 - - - - - - -
01/07:30pm 9.9 SSW 26 35 1017.5 - 0.8 - - - - - - -
01/07:00pm 9.7 SSW 27 34 1016.9 - 0.8 - - - - - - -
01/06:30pm 9.7 SSW 23 33 1016.1 - 0.8 - - - - - - -
01/06:00pm 9.9 SSW 24 34 1015.4 - 0.8 - - - - - - -
01/05:30pm 9.7 SSW 23 33 1014.3 - 0.8 - - - - - - -
01/05:13pm 9.4 SSW 23 33 1013.9 - 0.8 - - - - - - -
01/05:00pm 9.4 SW 27 37 1013.5 - 0.8 - - - - - - -
01/04:32pm 9.1 SSW 25 35 1012.8 - 0.8 - - - - - - -
01/04:31pm 9.1 SSW 25 35 1012.8 - 0.8 - - - - - - -
01/04:30pm 9.2 SW 26 35 1012.6 - 0.8 - - - - - - -
01/04:00pm 8.3 SSW 17 27 1011.8 - 0.8 - - - - - - -
01/03:44pm 7.9 SSW 24 34 1010.9 - 0.8 - - - - - - -
01/03:42pm 7.9 SSW 24 34 1010.7 - 0.8 - - - - - - -
01/03:30pm 9.4 SSW 26 32 1010.7 - 0.8 - - - - - - -
01/03:05pm 8.7 SSW 27 37 1010.0 - 0.8 - - - - - - -
01/03:04pm 8.7 SSW 27 37 1010.0 - 0.8 - - - - - - -
01/03:00pm 8.6 SSW 28 37 1010.0 R 0.8 Distant precip. Mostly cloudy 20 3 4.0 - SW
01/02:32pm 8.2 SSW 28 38 1008.5 - 0.8 - - - - - - -
01/02:31pm 8.2 SSW 28 38 1008.5 - 0.8 - - - - - - -
01/02:30pm 8.4 SW 29 38 1008.6 - 0.8 - - - - - - -
01/02:00pm 8.8 SSW 27 40 1008.2 - 0.8 - - - - - - -
01/01:30pm 8.3 SW 26 37 1007.5 - 0.8 - - - - - - -
01/01:04pm 9.3 SW 27 37 1006.7 - 0.6 - - - - - - -
01/01:03pm 9.3 SW 27 37 1006.7 - 0.6 - - - - - - -
01/01:00pm 9.8 SW 28 36 1006.6 - 0.6 - - - - - - -
01/12:30pm 7.7 SW 30 44 1006.4 - 0.6 - - - - - - -
01/12:00pm 9.6 SW 30 40 1005.6 - 0.4 - - - - - - -
01/11:31am 9.8 SW 29 39 1004.7 - 0.4 - - - - - - -
01/11:30am 9.7 SW 30 39 1004.7 - 0.4 - - - - - - -
01/11:00am 8.6 SW 25 46 1004.0 - 0.4 - - - - - - -
01/10:51am 8.3 SW 25 46 1003.8 - 0.4 - - - - - - -
01/10:49am 9.8 SW 23 41 1003.7 - 0.2 - - - - - - -
01/10:30am 9.2 SSW 22 32 1003.6 - 0.2 - - - - - - -
01/10:00am 8.8 SSW 27 38 1002.3 - 0.2 - - - - - - -
01/09:30am 7.4 SSW 25 37 1001.1 - 0.2 - - - - - - -
01/09:28am 7.2 SW 25 37 1001.1 - 0.2 - - - - - - -
01/09:27am 7.2 SSW 27 38 1001.1 - 0.2 - - - - - - -
01/09:26am 7.1 SSW 25 41 1001.0 - 0.2 - - - - - - -
01/09:24am 6.9 SW 23 28 1001.1 - 0.2 - - - - - - -
01/09:14am 7.3 W 24 35 1000.6 - 0.2 - - - - - - -
01/09:13am 7.3 WSW 21 35 1000.6 - 0.2 - - - - - - -
01/09:00am 5.3 NNW 17 25 999.8 R 15.6 Distant precip. Cloudy 10 3 4.0 - SW
01/08:32am 4.4 NNW 20 30 999.1 - 15.2 - - - - - - -
01/08:31am 4.4 NNW 20 30 999.1 - 15.2 - - - - - - -
01/08:30am 4.4 NNW 19 28 999.2 - 15.2 - - - - - - -
01/08:00am 4.5 NNW 19 33 999.1 - 14.4 - - - - - - -
01/07:31am 4.5 N 20 32 998.3 - 14.2 - - - - - - -
01/07:30am 4.4 N 19 28 998.3 - 14.2 - - - - - - -
01/07:00am 4.2 NNW 19 29 997.9 - 14.2 - - - - - - -
01/06:30am 4.8 NNW 27 39 996.7 - 14.2 - - - - - - -
01/06:29am 4.7 NNW 29 39 996.6 - 14.2 - - - - - - -
01/06:17am 5.1 NW 21 32 997.5 - 14.2 - - - - - - -
01/06:15am 4.9 NW 19 27 997.6 - 14.2 - - - - - - -
01/06:00am 4.8 NNW 20 30 997.1 - 14.2 - - - - - - -
01/05:31am 5.0 NNW 20 30 997.4 - 14.2 - - - - - - -
01/05:30am 5.0 NNW 20 29 997.4 - 14.2 - - - - - - -
01/05:19am 5.1 NNW 15 28 997.8 - 14.0 - - - - - - -
01/05:18am 5.1 NNW 15 28 997.8 - 14.0 - - - - - - -
01/05:00am 4.6 NNW 13 19 998.3 - 14.0 - - - - - - -
01/04:30am 4.8 NNW 17 27 997.8 - 13.0 - - - - - - -
01/04:16am 4.7 NNW 16 26 997.8 - 13.0 - - - - - - -
01/04:15am 4.7 NNW 16 26 997.8 - 13.0 - - - - - - -
01/04:00am 5.0 NNW 16 25 998.2 - 12.6 - - - - - - -
01/03:30am 5.5 NW 18 29 998.1 - 12.2 - - - - - - -
01/03:00am 5.4 NNW 19 30 998.7 - 12.0 - - - - - - -
01/02:30am 5.9 NNW 19 30 998.2 - 11.6 - - - - - - -
01/02:00am 6.2 NNW 18 28 998.2 - 11.6 - - - - - - -
01/01:44am 5.7 NNW 16 27 998.3 - 11.6 - - - - - - -
01/01:43am 5.7 NNW 16 27 998.3 - 11.6 - - - - - - -
01/01:30am 5.6 NNW 16 25 998.4 - 11.6 - - - - - - -
01/01:07am 6.4 NW 16 29 998.7 - 11.4 - - - - - - -
01/01:06am 6.4 NW 16 29 998.7 - 11.4 - - - - - - -
01/01:00am 6.5 NNW 17 25 998.6 - 11.4 - - - - - - -
01/12:38am 6.0 NW 15 25 998.4 - 11.4 - - - - - - -
01/12:37am 6.0 NW 15 25 998.4 - 11.4 - - - - - - -
01/12:30am 6.3 NW 17 25 998.4 - 11.4 - - - - - - -
01/12:00am 6.0 NNW 18 28 998.3 - 11.4 - - - - - - -
 
Date/Time
EST
Temp

°C
Wind Pressure Rain
since 9am
mm
Weather Cloud Vis
km
Sea
Height
m
Swell
Dir
 
Speed
knots
Gust
knots
hPa Trend Height
m
Period
s
Dir
31/11:30pm 6.8 NNW 16 27 998.5 - 11.4 - - - - - - -
31/11:00pm 7.8 NW 19 32 998.3 - 11.4 - - - - - - -
31/10:30pm 7.7 NW 18 30 998.0 - 11.4 - - - - - - -
31/10:16pm 8.5 NNW 21 34 997.8 - 11.4 - - - - - - -
31/10:15pm 8.5 NNW 21 37 997.8 - 11.4 - - - - - - -
31/10:00pm 10.0 WNW 24 36 997.4 - 11.4 - - - - - - -
31/09:30pm 9.2 W 24 35 997.4 - 11.4 - - - - - - -
31/09:00pm 7.4 WNW 22 35 997.7 - 11.4 - - - - - - -
31/08:30pm 8.0 WNW 26 41 997.2 - 10.8 - - - - - - -
31/08:00pm 9.1 WNW 28 40 996.6 - 9.8 - - - - - - -
31/07:30pm 10.0 WNW 22 37 996.2 - 9.8 - - - - - - -
31/07:00pm 9.4 WNW 27 38 996.2 - 9.8 - - - - - - -
31/06:30pm 9.9 WNW 26 37 995.6 - 9.8 - - - - - - -
31/06:03pm 9.3 W 31 42 995.2 - 9.8 - - - - - - -
31/06:00pm 9.3 W 29 35 995.4 - 9.8 - - - - - - -
31/05:30pm 8.5 NW 21 32 994.8 - 9.6 - - - - - - -
31/05:00pm 8.4 NW 22 34 994.6 - 9.6 - - - - - - -
31/04:40pm 9.5 WNW 25 37 994.2 - 9.6 - - - - - - -
31/04:39pm 9.5 WNW 26 49 994.2 - 9.6 - - - - - - -
31/04:33pm 9.9 WNW 36 49 993.6 - 9.6 - - - - - - -
31/04:30pm 9.2 NW 24 39 993.7 - 9.6 - - - - - - -
31/04:14pm 9.4 WNW 24 35 994.3 - 9.4 - - - - - - -
31/04:13pm 9.3 WNW 23 30 994.2 - 9.4 - - - - - - -
31/04:12pm 9.3 WNW 23 45 994.2 - 9.4 - - - - - - -
31/04:00pm 9.5 WNW 34 50 994.1 - 9.4 - - - - - - -
31/03:30pm 9.2 WNW 31 43 993.7 - 9.4 - - - - - - -
31/03:00pm 9.1 WNW 30 43 993.8 R 9.0 Squalls Cloudy 5 5 4.0 - SW
31/02:30pm 9.0 WNW 30 42 993.6 - 8.8 - - - - - - -
31/02:00pm 9.1 WNW 34 50 993.3 - 8.2 - - - - - - -
31/01:54pm 8.6 WNW 30 47 993.1 - 8.2 - - - - - - -
31/01:48pm 8.4 WNW 26 37 993.3 - 8.2 - - - - - - -
31/01:47pm 8.4 WNW 26 59 993.3 - 8.2 - - - - - - -
31/01:40pm 8.7 W 37 59 993.2 - 8.2 - - - - - - -
31/01:30pm 8.5 WNW 37 49 992.9 - 8.0 - - - - - - -
31/01:00pm 8.5 WNW 38 50 992.6 - 6.8 - - - - - - -
31/12:52pm 8.8 WNW 33 49 992.2 - 6.6 - - - - - - -
31/12:36pm 9.3 WNW 29 45 992.5 - 5.8 - - - - - - -
31/12:30pm 10.1 WNW 24 35 992.4 - 4.8 - - - - - - -
31/12:26pm 9.9 WNW 23 33 992.4 - 4.6 - - - - - - -
31/12:24pm 9.9 WNW 23 31 992.4 - 4.6 - - - - - - -
31/12:00pm 10.2 WNW 33 45 992.2 - 3.8 - - - - - - -
31/11:55am 10.1 WNW 33 43 992.3 - 3.6 - - - - - - -
31/11:54am 10.1 WNW 31 43 992.3 - 3.6 - - - - - - -
31/11:53am 9.9 WNW 35 43 992.3 - 3.4 - - - - - - -
31/11:30am 14.4 NNW 25 48 991.0 - 0.0 - - - - - - -
31/11:00am - NNW 26 39 - - 0.0 - - - - - - -
31/10:30am 14.6 NNW 27 41 991.7 - 0.0 - - - - - - -
31/10:00am 14.4 NNW 25 42 992.2 - 0.0 - - - - - - -
31/09:30am 13.9 NNW 23 36 992.9 - 0.0 - - - - - - -
31/09:00am 13.7 NNW 23 38 993.9 F 0.6 Fine Partly cloudy 20 5 4.0 - SW
31/08:30am 13.6 NNW 21 31 994.2 - 0.6 - - - - - - -
31/08:00am 13.5 NNW 20 33 994.8 - 0.6 - - - - - - -
31/07:30am 13.6 NNW 21 31 995.5 - 0.6 - - - - - - -
31/07:00am 13.9 NNW 21 35 995.5 - 0.6 - - - - - - -
31/06:30am 14.0 NNW 23 37 996.0 - 0.6 - - - - - - -
31/06:00am 13.9 NNW 21 39 996.7 - 0.6 - - - - - - -
31/05:30am 13.8 NNW 23 34 996.9 - 0.6 - - - - - - -
31/05:00am 14.3 NNW 19 35 997.3 - 0.6 - - - - - - -
31/04:30am 14.4 NNW 21 34 997.7 - 0.6 - - - - - - -
31/04:00am 14.5 NNW 22 37 998.3 - 0.6 - - - - - - -
31/03:30am 14.5 NNW 21 35 999.0 - 0.6 - - - - - - -
31/03:00am 14.4 NNW 21 38 999.5 - 0.6 - - - - - - -
31/02:30am 14.3 NNW 26 38 999.8 - 0.6 - - - - - - -
31/02:00am 13.8 NNW 25 42 1000.3 - 0.6 - - - - - - -
31/01:30am 13.6 NNW 23 37 1001.0 - 0.6 - - - - - - -
31/01:00am 13.3 NNW 20 35 1001.8 - 0.6 - - - - - - -
31/12:30am 13.8 NNW 22 33 1002.5 - 0.6 - - - - - - -
31/12:00am 14.0 NNW 24 36 1003.1 - 0.6 - - - - - - -
 
Date/Time
EST
Temp

°C
Wind Pressure Rain
since 9am
mm
Weather Cloud Vis
km
Sea
Height
m
Swell
Dir
 
Speed
knots
Gust
knots
hPa Trend Height
m
Period
s
Dir
30/11:30pm 13.3 NNW 20 32 1003.2 - 0.6 - - - - - - -
30/11:05pm 13.1 NNW 18 39 1003.5 - 0.6 - - - - - - -
30/11:04pm 13.1 NNW 18 39 1003.5 - 0.6 - - - - - - -
30/11:01pm 12.8 NNW 16 28 1003.7 - 0.6 - - - - - - -
30/11:00pm 12.8 NNW 16 25 1003.8 - 0.6 - - - - - - -
30/10:30pm 14.0 NNW 25 44 1003.9 - 0.6 - - - - - - -
30/10:00pm 13.8 NNW 22 36 1004.2 - 0.6 - - - - - - -
30/09:30pm 13.7 NNW 19 35 1004.2 - 0.6 - - - - - - -
30/09:00pm 14.0 NNW 19 37 1004.5 - 0.6 - - - - - - -
30/08:30pm 14.0 NNW 19 31 1005.0 - 0.6 - - - - - - -
30/08:00pm 13.9 NNW 21 36 1005.2 - 0.6 - - - - - - -
30/07:30pm 14.2 NNW 20 33 1005.4 - 0.6 - - - - - - -
30/07:00pm 14.0 NW 19 31 1005.6 - 0.6 - - - - - - -
30/06:30pm 13.9 NNW 17 27 1005.3 - 0.6 - - - - - - -
30/06:00pm 13.9 NW 19 31 1005.8 - 0.6 - - - - - - -
30/05:30pm 14.0 NW 16 27 1005.7 - 0.6 - - - - - - -
30/05:00pm 14.7 NW 19 31 1005.6 - 0.6 - - - - - - -
30/04:30pm 14.6 NW 18 29 1005.7 - 0.6 - - - - - - -
30/04:01pm 14.7 NW 18 28 1005.9 - 0.6 - - - - - - -
30/04:00pm 14.8 NW 19 28 1005.9 - 0.6 - - - - - - -
30/03:30pm 14.6 WNW 22 33 1006.0 - 0.6 - - - - - - -
30/03:06pm 14.7 NW 21 31 1006.1 - 0.6 - - - - - - -
30/03:05pm 14.7 NW 21 31 1006.1 - 0.6 - - - - - - -
30/03:00pm 14.7 NW 21 29 1006.2 F 0.6 Distant precip. Mostly cloudy 20 3 4.0 - SW
30/02:30pm 14.8 WNW 25 39 1006.0 - 0.6 - - - - - - -
30/02:00pm 14.4 WNW 25 37 1006.0 - 0.6 - - - - - - -
30/01:30pm 13.4 NW 23 37 1006.3 - 0.6 - - - - - - -
30/01:19pm 13.8 WNW 22 42 1006.5 - 0.2 - - - - - - -
30/01:00pm 15.1 NW 21 35 1006.5 - 0.0 - - - - - - -
30/12:30pm 14.5 NW 21 34 1007.3 - 0.0 - - - - - - -
30/12:00pm 14.2 NW 23 33 1007.9 - 0.0 - - - - - - -
30/11:30am 14.2 NW 21 34 1008.0 - 0.0 - - - - - - -
30/11:01am 14.1 NW 20 30 1008.3 - 0.0 - - - - - - -
30/11:00am 14.1 NW 21 30 1008.3 - 0.0 - - - - - - -
30/10:30am 14.1 NW 20 31 1008.3 - 0.0 - - - - - - -
30/10:00am 13.5 NW 19 31 1008.6 - 0.0 - - - - - - -
30/09:30am 13.3 NW 19 31 1008.6 - 0.0 - - - - - - -
30/09:00am 13.2 NW 21 31 1008.9 F 3.4 Distant precip. Partly cloudy 20 3 4.0 - SW
30/08:30am 12.8 NW 20 31 1008.4 - 3.4 - - - - - - -
30/08:01am 12.4 NW 19 29 1008.5 - 3.4 - - - - - - -
30/08:00am 12.4 NW 18 28 1008.5 - 3.4 - - - - - - -
30/07:46am 12.2 NW 17 28 1008.6 - 3.4 - - - - - - -
30/07:41am 12.3 NW 16 26 1008.6 - 3.4 - - - - - - -
30/07:30am 12.3 NW 17 26 1008.5 - 3.4 - - - - - - -
30/07:01am 12.1 NW 17 27 1008.0 - 3.4 - - - - - - -
30/07:00am 12.0 NW 17 26 1008.0 - 3.4 - - - - - - -
30/06:30am 12.2 NW 18 28 1008.1 - 3.4 - - - - - - -
30/06:10am 12.0 NW 18 29 1008.0 - 3.4 - - - - - - -
30/06:09am 12.0 NW 18 29 1008.0 - 3.4 - - - - - - -
30/06:00am 11.9 NW 18 25 1008.1 - 3.4 - - - - - - -
30/05:30am 12.0 NW 19 27 1008.0 - 3.4 - - - - - - -
30/05:00am 12.4 NW 17 29 1008.0 - 3.4 - - - - - - -
30/04:30am 13.4 WNW 25 36 1007.7 - 3.4 - - - - - - -
30/04:08am 13.1 WNW 20 32 1007.7 - 3.4 - - - - - - -
30/04:00am 13.2 WNW 19 29 1007.8 - 3.4 - - - - - - -
30/03:39am 13.3 WNW 21 31 1007.8 - 3.4 - - - - - - -
30/03:38am 13.3 WNW 21 31 1007.8 - 3.4 - - - - - - -
30/03:30am 13.3 WNW 23 31 1008.0 - 3.4 - - - - - - -
30/03:00am 12.9 WNW 26 40 1008.2 - 3.4 - - - - - - -
30/02:30am 12.1 WNW 24 34 1008.3 - 3.4 - - - - - - -

Other Formats:

Comma delimited format used in spreadsheet applications
http://www.bom.gov.au/fwo/IDT60701/IDT60701.94842.axf

JavaScript Object Notation format (JSON) in row-major order
http://www.bom.gov.au/fwo/IDT60701/IDT60701.94842.json